Time;durP1;ratioP1;P1;durP2;ratioP2;P2;SDS_P1;SDS_P2;PMS_P1;PMS_P2;Temp;Humidity;BMP_temperature;BMP_pressure;BME280_temperature;BME280_humidity;BME280_pressure;Samples;Min_cycle;Max_cycle;Signal;HPM_P1;HPM_P2
2022/06/15 00:00:07;;;;;;;5.25;3.08;;;;;;;10.18;90.36;101879.00;1051154;28;20351;-80
2022/06/15 00:00:41;;;;;;;3.50;3.20;;;;;;;10.25;90.35;101884.41;1052601;28;20762;-80
2022/06/15 00:01:18;;;;;;;4.63;3.67;;;;;;;10.31;90.50;101877.50;1055207;28;20786;-80
2022/06/15 00:01:50;;;;;;;4.93;3.47;;;;;;;10.47;89.58;101879.94;1058805;27;20301;-80
2022/06/15 00:02:22;;;;;;;7.45;3.50;;;;;;;10.37;89.40;101882.06;1066358;27;20297;-80
2022/06/15 00:02:53;;;;;;;5.03;3.55;;;;;;;10.28;90.11;101876.03;1064938;27;20945;-80
2022/06/15 00:03:28;;;;;;;6.72;3.95;;;;;;;10.14;90.35;101877.72;1060416;27;20666;-80
2022/06/15 00:04:02;;;;;;;6.13;3.78;;;;;;;10.15;90.55;101879.38;1056572;28;20332;-80
2022/06/15 00:04:35;;;;;;;4.10;3.30;;;;;;;10.24;90.37;101873.94;1052656;27;20336;-80
2022/06/15 00:05:07;;;;;;;6.68;4.22;;;;;;;10.46;90.33;101880.94;1054432;28;20297;-80
2022/06/15 00:05:42;;;;;;;8.50;3.75;;;;;;;10.23;89.86;101877.63;1059271;27;20755;-80
2022/06/15 00:06:16;;;;;;;11.60;4.05;;;;;;;10.19;90.35;101874.50;1062224;27;20277;-80
2022/06/15 00:06:48;;;;;;;6.07;3.45;;;;;;;10.31;90.05;101877.50;1060499;27;20297;-80
2022/06/15 00:07:20;;;;;;;6.35;3.85;;;;;;;10.32;90.02;101874.66;1058887;27;20300;-80
2022/06/15 00:07:52;;;;;;;6.93;4.22;;;;;;;10.39;89.84;101880.03;1059098;27;20273;-80
2022/06/15 00:08:24;;;;;;;6.47;4.35;;;;;;;10.34;89.67;101882.44;1056932;28;20308;-80
2022/06/15 00:08:57;;;;;;;10.65;3.65;;;;;;;9.99;90.32;101879.56;1059482;27;20367;-81
2022/06/15 00:09:29;;;;;;;6.10;4.05;;;;;;;10.12;90.34;101884.22;1056364;28;20876;-80
2022/06/15 00:10:01;;;;;;;10.73;4.03;;;;;;;10.29;90.90;101875.03;1053393;28;20799;-80
2022/06/15 00:10:33;;;;;;;6.53;4.50;;;;;;;10.50;90.63;101876.88;1058250;27;20297;-80
2022/06/15 00:11:13;;;;;;;6.68;4.45;;;;;;;10.67;90.21;101875.59;1060130;27;20296;-80
2022/06/15 00:11:45;;;;;;;13.80;4.82;;;;;;;10.76;89.83;101881.63;1054719;28;20305;-80
2022/06/15 00:12:46;;;;;;;14.27;4.20;;;;;;;10.80;89.55;101878.38;1050913;28;20118;-80
2022/06/15 00:13:17;;;;;;;7.38;4.43;;;;;;;10.60;89.17;101876.56;1053360;27;20297;-80
2022/06/15 00:13:50;;;;;;;13.23;4.75;;;;;;;10.61;89.14;101876.38;1064319;27;20296;-80
2022/06/15 00:14:24;;;;;;;7.85;4.50;;;;;;;10.67;89.49;101872.94;1063295;27;20292;-80
2022/06/15 00:14:56;;;;;;;7.50;3.38;;;;;;;10.54;89.31;101878.16;1060496;27;20296;-80
2022/06/15 00:15:27;;;;;;;7.65;3.80;;;;;;;10.65;88.94;101877.63;1060496;27;20375;-80
2022/06/15 00:15:59;;;;;;;7.60;3.90;;;;;;;10.75;88.75;101874.66;1060856;27;20290;-80
2022/06/15 00:16:31;;;;;;;7.03;3.80;;;;;;;10.79;88.90;101871.41;1062367;27;20375;-80
2022/06/15 00:17:03;;;;;;;7.70;4.20;;;;;;;10.90;88.38;101872.72;1062020;27;20673;-80
2022/06/15 00:17:35;;;;;;;8.15;4.72;;;;;;;10.88;88.67;101873.94;1060817;27;20304;-80
2022/06/15 00:18:08;;;;;;;11.20;4.65;;;;;;;10.86;88.15;101875.97;1056230;28;20297;-80
2022/06/15 00:18:40;;;;;;;6.32;3.83;;;;;;;10.76;87.74;101870.97;1056270;28;20358;-80
2022/06/15 00:19:36;;;;;;;5.93;4.07;;;;;;;10.47;88.11;101869.28;1052921;28;20799;-80
2022/06/15 00:20:09;;;;;;;7.80;4.00;;;;;;;10.59;88.73;101873.06;1055167;28;20285;-80
2022/06/15 00:20:41;;;;;;;8.30;3.70;;;;;;;10.52;88.71;101870.34;1052355;28;20325;-80
2022/06/15 00:21:14;;;;;;;5.32;3.90;;;;;;;10.51;88.51;101873.22;1052110;28;20301;-80
2022/06/15 00:21:57;;;;;;;5.15;4.20;;;;;;;10.69;89.16;101878.91;1047897;28;20350;-80
2022/06/15 00:22:29;;;;;;;9.30;4.50;;;;;;;10.77;88.78;101884.09;1047846;28;20294;-80
2022/06/15 00:23:11;;;;;;;7.97;4.95;;;;;;;10.63;89.11;101877.00;1052329;28;20763;-80
2022/06/15 00:23:43;;;;;;;7.40;3.92;;;;;;;10.46;89.43;101876.44;1054437;28;20289;-80
2022/06/15 00:24:14;;;;;;;8.32;4.82;;;;;;;10.40;89.54;101876.34;1049825;28;20307;-80
2022/06/15 00:24:46;;;;;;;6.43;3.83;;;;;;;10.43;89.19;101878.66;1051815;28;20813;-80
2022/06/15 00:25:18;;;;;;;9.90;4.43;;;;;;;10.38;89.28;101873.88;1045477;28;20303;-80
2022/06/15 00:25:52;;;;;;;6.57;4.20;;;;;;;10.46;89.76;101872.97;1052745;28;20302;-80
2022/06/15 00:26:26;;;;;;;11.38;4.68;;;;;;;10.68;89.41;101885.28;1050510;28;20352;-80
2022/06/15 00:26:57;;;;;;;7.50;4.75;;;;;;;10.74;89.46;101884.50;1049335;28;20333;-80
2022/06/15 00:27:32;;;;;;;6.68;4.15;;;;;;;10.57;89.44;101882.28;1051934;28;20302;-80
2022/06/15 00:28:04;;;;;;;5.47;4.18;;;;;;;10.46;89.38;101878.28;1050425;28;20299;-80
2022/06/15 00:28:35;;;;;;;6.35;4.63;;;;;;;10.42;89.48;101879.69;1052222;28;20376;-80
2022/06/15 00:29:08;;;;;;;11.43;4.55;;;;;;;10.43;89.52;101881.34;1053819;28;20305;-80
2022/06/15 00:29:39;;;;;;;8.10;4.75;;;;;;;10.30;89.28;101875.84;1060742;27;20307;-80
2022/06/15 00:30:12;;;;;;;5.95;4.57;;;;;;;10.39;89.67;101880.84;1056388;28;20304;-80
2022/06/15 00:30:45;;;;;;;4.53;4.13;;;;;;;10.34;89.51;101871.78;1049723;28;20975;-80
2022/06/15 00:31:17;;;;;;;4.50;4.10;;;;;;;10.38;89.92;101876.53;1044479;28;20306;-80
2022/06/15 00:31:49;;;;;;;8.15;5.88;;;;;;;10.57;90.22;101888.44;1049672;28;20871;-80
2022/06/15 00:32:21;;;;;;;12.25;4.65;;;;;;;10.27;90.63;101878.91;1050259;28;20301;-80
2022/06/15 00:32:52;;;;;;;5.95;4.68;;;;;;;10.07;91.05;101882.13;1048436;28;20313;-80
2022/06/15 00:33:25;;;;;;;6.00;4.60;;;;;;;10.14;90.62;101877.72;1054030;27;21172;-80
2022/06/15 00:33:57;;;;;;;4.82;3.80;;;;;;;10.27;90.90;101876.22;1052686;28;20300;-80
2022/06/15 00:34:29;;;;;;;7.95;4.90;;;;;;;9.93;91.82;101882.16;1052437;28;20451;-80
2022/06/15 00:35:00;;;;;;;4.50;4.03;;;;;;;9.99;91.68;101882.25;1056333;28;20347;-80
2022/06/15 00:35:32;;;;;;;6.53;5.07;;;;;;;10.01;92.06;101888.19;1051031;28;20301;-80
2022/06/15 00:36:09;;;;;;;7.00;4.90;;;;;;;9.84;91.90;101884.91;1060178;28;20299;-80
2022/06/15 00:36:41;;;;;;;5.80;4.55;;;;;;;9.91;92.41;101883.19;1053894;28;20294;-80
2022/06/15 00:37:13;;;;;;;5.63;4.80;;;;;;;10.06;92.07;101875.16;1057513;27;20392;-80
2022/06/15 00:37:44;;;;;;;4.80;4.22;;;;;;;10.12;92.02;101882.38;1060213;27;20305;-80
2022/06/15 00:38:16;;;;;;;6.80;4.22;;;;;;;10.20;91.85;101878.81;1056258;28;20651;-80
2022/06/15 00:38:50;;;;;;;4.78;4.43;;;;;;;10.15;91.97;101887.34;1056219;28;20323;-80
2022/06/15 00:39:21;;;;;;;5.03;4.15;;;;;;;10.17;91.75;101882.66;1054949;27;20306;-80
2022/06/15 00:39:53;;;;;;;7.25;4.10;;;;;;;10.18;92.20;101881.66;1056051;28;20301;-80
2022/06/15 00:40:24;;;;;;;4.70;4.10;;;;;;;10.17;91.34;101888.00;1053998;28;20788;-80
2022/06/15 00:40:57;;;;;;;6.07;4.80;;;;;;;10.27;91.42;101886.88;1058691;27;20358;-80
2022/06/15 00:41:34;;;;;;;7.88;5.38;;;;;;;10.39;91.12;101890.69;1056831;28;20421;-80
2022/06/15 00:42:06;;;;;;;7.72;5.32;;;;;;;10.41;90.86;101888.69;1059756;27;20292;-80
2022/06/15 00:42:38;;;;;;;7.90;4.60;;;;;;;10.41;90.83;101883.38;1055591;28;20659;-80
2022/06/15 00:43:09;;;;;;;13.20;4.72;;;;;;;10.48;90.79;101890.41;1058363;28;20297;-80
2022/06/15 00:43:50;;;;;;;11.57;5.75;;;;;;;10.43;90.86;101886.66;1050692;28;20298;-80
2022/06/15 00:44:22;;;;;;;9.43;4.80;;;;;;;10.41;90.48;101888.69;1051556;28;20298;-80
2022/06/15 00:45:17;;;;;;;11.38;4.93;;;;;;;10.57;90.94;101888.44;1059472;27;20035;-80
2022/06/15 00:45:50;;;;;;;7.30;4.47;;;;;;;10.51;90.71;101886.53;1061670;27;20666;-80
2022/06/15 00:46:49;;;;;;;9.63;4.00;;;;;;;10.62;90.21;101880.69;1062445;27;20284;-80
2022/06/15 00:47:27;;;;;;;5.38;4.55;;;;;;;10.63;90.26;101887.66;1056353;28;20346;-80
2022/06/15 00:47:59;;;;;;;7.90;4.10;;;;;;;10.57;89.59;101877.75;1056269;28;20822;-80
2022/06/15 00:48:31;;;;;;;5.20;4.18;;;;;;;10.48;89.99;101877.06;1052284;28;20763;-80
2022/06/15 00:49:14;;;;;;;7.00;4.30;;;;;;;10.48;90.05;101878.91;1049387;28;20307;-80
2022/06/15 00:50:19;;;;;;;5.00;4.60;;;;;;;10.35;91.14;101878.78;1052168;28;20780;-80
2022/06/15 00:50:51;;;;;;;7.95;4.38;;;;;;;10.03;91.66;101880.84;1058532;28;20413;-80
2022/06/15 00:51:24;;;;;;;4.90;4.40;;;;;;;9.94;91.90;101884.63;1055166;28;20857;-80
2022/06/15 00:52:00;;;;;;;6.03;4.63;;;;;;;9.83;92.24;101890.41;1056089;28;20289;-80
2022/06/15 00:52:54;;;;;;;7.75;4.40;;;;;;;9.88;93.03;101888.06;1050494;28;20294;-80
2022/06/15 00:53:26;;;;;;;4.45;4.03;;;;;;;9.81;92.89;101877.31;1055137;28;20300;-80
2022/06/15 00:53:58;;;;;;;7.72;3.75;;;;;;;9.77;92.80;101880.53;1056202;28;20294;-80
2022/06/15 00:54:30;;;;;;;5.68;3.85;;;;;;;9.57;92.45;101880.25;1051583;28;20811;-80
2022/06/15 00:55:07;;;;;;;5.43;4.13;;;;;;;9.39;93.02;101877.97;1045260;28;20821;-80
2022/06/15 00:55:38;;;;;;;5.32;4.38;;;;;;;9.41;93.58;101878.63;1046138;28;20295;-80
2022/06/15 00:56:10;;;;;;;7.38;5.65;;;;;;;9.42;94.50;101880.28;1050117;28;20301;-80
2022/06/15 00:56:43;;;;;;;4.75;3.67;;;;;;;9.46;94.49;101878.88;1050894;28;20369;-80
2022/06/15 00:57:15;;;;;;;4.95;4.25;;;;;;;9.58;94.31;101874.75;1052752;28;20304;-80
2022/06/15 00:57:47;;;;;;;8.82;5.07;;;;;;;9.50;94.81;101860.72;1048588;28;20306;-80
2022/06/15 00:58:18;;;;;;;5.53;3.85;;;;;;;9.68;95.05;101871.00;1047949;28;20305;-80
2022/06/15 00:58:52;;;;;;;6.57;4.15;;;;;;;9.39;94.51;101872.66;1044153;28;20307;-80
2022/06/15 00:59:33;;;;;;;8.02;5.18;;;;;;;9.46;95.13;101878.88;1050254;28;20310;-80
2022/06/15 01:00:06;;;;;;;7.30;4.20;;;;;;;9.72;95.11;101870.44;1049879;28;20656;-80
2022/06/15 01:00:38;;;;;;;8.20;4.30;;;;;;;9.35;95.14;101876.69;1054182;28;20372;-80
2022/06/15 01:01:10;;;;;;;6.63;5.18;;;;;;;9.33;95.11;101867.25;1058266;28;20304;-80
2022/06/15 01:01:42;;;;;;;6.63;4.72;;;;;;;9.48;94.94;101865.41;1052906;28;20298;-80
2022/06/15 01:02:13;;;;;;;6.80;4.57;;;;;;;9.27;95.35;101869.59;1051770;28;20332;-80
2022/06/15 01:02:45;;;;;;;9.27;4.15;;;;;;;9.34;95.28;101869.72;1052336;28;20293;-80
2022/06/15 01:03:17;;;;;;;5.43;4.35;;;;;;;9.60;94.65;101874.59;1051713;28;20305;-80
2022/06/15 01:03:51;;;;;;;4.43;3.70;;;;;;;9.59;94.25;101868.44;1050806;28;20309;-80
2022/06/15 01:04:23;;;;;;;4.80;4.22;;;;;;;9.56;94.27;101863.47;1047828;28;20298;-80
2022/06/15 01:05:03;;;;;;;5.40;4.72;;;;;;;9.62;93.73;101867.25;1048067;28;20322;-80
2022/06/15 01:05:44;;;;;;;11.77;4.53;;;;;;;9.65;94.31;101871.38;1052092;28;20294;-80
2022/06/15 01:06:33;;;;;;;6.32;4.55;;;;;;;9.30;94.08;101869.25;1055098;28;20662;-80
2022/06/15 01:07:30;;;;;;;8.77;4.40;;;;;;;9.53;94.12;101873.66;1053895;28;20044;-80
2022/06/15 01:08:37;;;;;;;6.80;5.03;;;;;;;9.62;94.50;101861.09;1056375;28;20290;-80
2022/06/15 01:09:21;;;;;;;9.68;5.20;;;;;;;9.49;94.92;101870.53;1054519;28;20316;-80
2022/06/15 01:10:12;;;;;;;7.22;4.32;;;;;;;9.68;94.19;101861.19;1056445;27;20316;-80
2022/06/15 01:11:08;;;;;;;5.03;4.18;;;;;;;9.68;94.51;101863.03;1055050;28;20297;-80
2022/06/15 01:21:17;;;;;;;6.50;4.38;;;;;;;10.12;92.13;101865.56;1063374;27;20289;-80
2022/06/15 01:21:54;;;;;;;10.60;5.03;;;;;;;10.05;92.22;101862.84;1063030;27;20717;-81
2022/06/15 01:23:12;;;;;;;10.77;5.07;;;;;;;10.03;92.00;101859.56;1056023;28;20297;-80
2022/06/15 01:24:05;;;;;;;22.00;5.55;;;;;;;10.09;91.76;101864.13;1041643;28;20310;-80
2022/06/15 01:25:17;;;;;;;118.57;13.88;;;;;;;10.18;91.77;101862.19;1058903;28;20301;-79
2022/06/15 01:26:00;;;;;;;84.50;10.63;;;;;;;10.14;91.54;101861.75;1060275;28;20304;-78
2022/06/15 01:27:03;;;;;;;56.38;8.27;;;;;;;10.16;92.10;101864.22;1055759;28;20351;-78
2022/06/15 01:28:00;;;;;;;32.50;7.07;;;;;;;10.19;91.63;101859.34;1054974;28;20312;-78
2022/06/15 01:28:40;;;;;;;45.65;9.00;;;;;;;10.11;91.24;101862.09;1058443;28;20301;-78
2022/06/15 01:30:00;;;;;;;49.58;7.97;;;;;;;9.92;91.40;101868.03;1055985;28;20327;-77
2022/06/15 01:30:53;;;;;;;30.90;7.28;;;;;;;9.83;91.98;101867.28;1055961;27;20308;-77
2022/06/15 01:31:40;;;;;;;53.55;8.02;;;;;;;9.65;92.28;101871.38;1060133;27;20765;-77
2022/06/15 01:32:20;;;;;;;50.90;7.15;;;;;;;9.65;92.64;101866.06;1054047;28;20373;-77
2022/06/15 01:33:15;;;;;;;60.63;9.82;;;;;;;9.56;92.40;101866.13;1050954;28;20294;-77
2022/06/15 01:34:31;;;;;;;30.30;7.95;;;;;;;9.39;92.17;101866.53;1048977;28;20309;-76
2022/06/15 01:35:28;;;;;;;14.18;4.60;;;;;;;9.47;93.41;101864.59;1045338;28;20330;-76
2022/06/15 01:36:10;;;;;;;17.10;6.03;;;;;;;9.63;93.16;101871.56;1053170;28;20390;-77
2022/06/15 01:37:03;;;;;;;40.88;9.43;;;;;;;9.65;93.28;101866.88;1047528;28;20666;-76
2022/06/15 01:37:40;;;;;;;20.15;7.88;;;;;;;9.68;93.16;101865.69;1048427;28;20299;-77
2022/06/15 01:38:48;;;;;;;26.50;6.55;;;;;;;9.78;93.24;101866.22;1047405;28;20291;-77
2022/06/15 01:39:27;;;;;;;13.43;4.65;;;;;;;9.64;93.05;101870.56;1056684;28;20301;-76
2022/06/15 01:40:28;;;;;;;9.10;5.20;;;;;;;9.83;93.36;101874.44;1058569;27;20779;-77
2022/06/15 01:41:09;;;;;;;12.88;5.00;;;;;;;9.97;93.50;101873.63;1061023;27;20304;-77
2022/06/15 01:41:48;;;;;;;8.27;5.10;;;;;;;9.65;93.24;101861.56;1060762;27;20284;-76
2022/06/15 01:42:24;;;;;;;10.80;4.95;;;;;;;9.66;93.33;101873.84;1058381;28;20825;-77
2022/06/15 01:43:01;;;;;;;11.32;5.00;;;;;;;9.69;93.88;101868.16;1055782;28;20790;-76
2022/06/15 01:43:40;;;;;;;12.85;5.10;;;;;;;9.87;93.59;101875.75;1047546;28;20302;-76
2022/06/15 01:44:25;;;;;;;12.90;5.70;;;;;;;9.76;93.12;101873.56;1041781;28;20457;-76
2022/06/15 01:45:07;;;;;;;17.45;6.07;;;;;;;9.70;92.81;101864.47;1039745;28;20307;-76
2022/06/15 01:45:41;;;;;;;6.10;5.22;;;;;;;9.76;92.75;101873.56;1043192;28;20299;-77
2022/06/15 01:46:13;;;;;;;8.25;6.18;;;;;;;9.80;93.04;101872.16;1050186;28;20047;-77
2022/06/15 01:46:46;;;;;;;9.10;4.55;;;;;;;9.88;93.47;101867.59;1053571;28;20312;-77
2022/06/15 01:47:20;;;;;;;6.40;5.00;;;;;;;9.85;93.21;101867.09;1052663;28;20354;-77
2022/06/15 01:47:56;;;;;;;5.45;4.95;;;;;;;9.71;93.19;101867.97;1053613;28;20660;-78
2022/06/15 01:48:29;;;;;;;13.57;5.88;;;;;;;9.59;92.56;101867.63;1055232;28;20782;-77
2022/06/15 01:49:02;;;;;;;9.30;5.70;;;;;;;9.61;93.10;101860.28;1051410;28;20511;-77
2022/06/15 01:49:37;;;;;;;6.60;4.78;;;;;;;9.77;93.28;101861.91;1051731;28;20309;-76
2022/06/15 01:50:24;;;;;;;4.72;4.30;;;;;;;9.67;92.67;101864.03;1046275;28;20335;-77
2022/06/15 01:51:02;;;;;;;8.68;5.07;;;;;;;9.13;93.31;101867.78;1051329;28;20302;-79
2022/06/15 01:51:39;;;;;;;6.63;5.10;;;;;;;9.11;93.80;101868.97;1055383;28;20311;-78
2022/06/15 01:52:14;;;;;;;6.05;4.80;;;;;;;9.07;93.88;101867.69;1058933;28;20299;-79
2022/06/15 01:52:49;;;;;;;5.95;4.45;;;;;;;9.42;94.09;101859.00;1058713;28;20293;-79
2022/06/15 01:53:46;;;;;;;6.15;5.63;;;;;;;9.36;95.12;101865.06;1054109;28;20295;-79
2022/06/15 01:54:33;;;;;;;6.30;4.65;;;;;;;9.26;95.03;101861.81;1041914;28;20312;-79
2022/06/15 01:55:16;;;;;;;5.20;4.70;;;;;;;8.95;94.15;101849.50;1057371;27;20310;-79
2022/06/15 01:55:56;;;;;;;9.57;5.07;;;;;;;8.82;94.56;101851.13;1055440;28;20048;-79
2022/06/15 01:56:32;;;;;;;7.30;5.32;;;;;;;8.68;95.35;101858.03;1052835;28;20548;-79
2022/06/15 01:57:05;;;;;;;6.88;5.13;;;;;;;8.63;96.39;101852.44;1052493;28;20677;-79
2022/06/15 01:57:38;;;;;;;10.18;5.22;;;;;;;8.62;96.08;101864.06;1052503;28;20346;-79
2022/06/15 01:58:11;;;;;;;6.65;5.05;;;;;;;8.57;96.72;101855.81;1050346;28;20336;-79
2022/06/15 01:58:47;;;;;;;6.10;5.10;;;;;;;8.72;97.48;101848.72;1044439;28;20350;-79
2022/06/15 01:59:46;;;;;;;13.52;5.32;;;;;;;9.04;97.21;101852.06;1041940;28;20667;-79
2022/06/15 02:00:18;;;;;;;14.38;5.00;;;;;;;8.99;97.58;101855.28;1046494;28;20299;-79
2022/06/15 02:01:29;;;;;;;5.35;4.85;;;;;;;8.66;96.65;101854.75;1052599;28;20423;-79
2022/06/15 02:02:07;;;;;;;10.50;5.43;;;;;;;8.50;96.64;101850.41;1047471;28;20298;-79
2022/06/15 02:02:45;;;;;;;9.50;4.80;;;;;;;8.44;97.27;101847.59;1056023;27;20298;-79
2022/06/15 02:03:26;;;;;;;4.43;4.03;;;;;;;8.62;97.67;101853.47;1052581;28;20829;-80
2022/06/15 02:04:29;;;;;;;5.47;4.97;;;;;;;8.49;98.28;101847.91;1055909;28;20297;-79
2022/06/15 02:05:19;;;;;;;5.55;5.05;;;;;;;8.48;98.04;101855.03;1050230;28;20056;-79
2022/06/15 02:06:11;;;;;;;11.93;5.72;;;;;;;8.54;98.66;101849.03;1045894;28;20294;-79
2022/06/15 02:07:12;;;;;;;8.30;5.53;;;;;;;8.72;98.94;101846.06;1047620;28;20295;-79
2022/06/15 02:07:48;;;;;;;9.25;5.15;;;;;;;8.90;97.60;101848.41;1054270;28;20343;-79
2022/06/15 02:08:36;;;;;;;10.30;4.90;;;;;;;8.99;97.87;101842.81;1049637;28;20290;-79
2022/06/15 02:09:24;;;;;;;10.25;5.40;;;;;;;8.95;96.93;101844.19;1050765;28;20371;-79
2022/06/15 02:10:00;;;;;;;11.93;4.97;;;;;;;8.82;96.66;101849.31;1051885;28;20290;-79
2022/06/15 02:10:40;;;;;;;9.93;5.35;;;;;;;8.68;96.93;101847.41;1050267;28;20320;-79
2022/06/15 02:11:30;;;;;;;7.80;5.07;;;;;;;8.78;96.65;101847.19;1048481;28;20305;-76
2022/06/15 02:12:04;;;;;;;6.85;4.70;;;;;;;8.65;96.49;101842.47;1048542;28;20299;-79
2022/06/15 02:13:05;;;;;;;7.20;4.63;;;;;;;8.52;97.21;101850.22;1054928;28;20040;-79
2022/06/15 02:14:18;;;;;;;6.15;4.70;;;;;;;8.42;96.54;101844.31;1053643;28;20298;-79
2022/06/15 02:14:56;;;;;;;9.27;5.28;;;;;;;8.52;97.33;101847.56;1051150;28;20312;-76
2022/06/15 02:15:29;;;;;;;8.98;4.57;;;;;;;8.67;97.65;101835.16;1042340;28;20411;-77
2022/06/15 02:16:09;;;;;;;5.75;5.22;;;;;;;8.61;96.57;101846.50;1041836;28;20339;-76
2022/06/15 02:16:48;;;;;;;5.93;5.32;;;;;;;8.45;97.30;101847.44;1037939;28;20710;-77
2022/06/15 02:17:23;;;;;;;10.63;5.53;;;;;;;8.50;97.08;101844.28;1033034;28;20294;-77
2022/06/15 02:17:57;;;;;;;12.55;5.30;;;;;;;8.70;97.10;101840.09;1043692;28;20354;-77
2022/06/15 02:18:29;;;;;;;7.88;4.80;;;;;;;8.71;97.06;101841.75;1048054;28;20310;-76
2022/06/15 02:19:05;;;;;;;5.93;5.32;;;;;;;8.55;97.19;101841.91;1045987;28;20300;-78
2022/06/15 02:19:42;;;;;;;6.25;5.65;;;;;;;8.49;96.94;101839.94;1044474;28;20315;-77
2022/06/15 02:20:17;;;;;;;5.95;5.28;;;;;;;8.42;96.94;101842.47;1045214;28;20402;-76
2022/06/15 02:20:51;;;;;;;8.82;5.00;;;;;;;8.32;98.20;101842.69;1048370;28;20299;-77
2022/06/15 02:21:26;;;;;;;7.47;5.45;;;;;;;8.50;98.34;101838.97;1045779;28;20385;-76
2022/06/15 02:22:05;;;;;;;14.38;5.50;;;;;;;8.53;98.24;101841.25;1045407;28;20882;-77
2022/06/15 02:22:39;;;;;;;7.25;4.93;;;;;;;8.60;97.89;101839.53;1048101;28;20919;-76
2022/06/15 02:23:12;;;;;;;11.48;5.78;;;;;;;8.31;97.73;101846.34;1050183;28;20780;-76
2022/06/15 02:23:47;;;;;;;6.22;5.28;;;;;;;8.28;97.82;101840.56;1045733;28;20789;-76
2022/06/15 02:24:21;;;;;;;8.63;6.03;;;;;;;8.29;97.59;101848.34;1049002;28;20303;-77
2022/06/15 02:24:55;;;;;;;5.90;5.40;;;;;;;8.20;97.66;101838.78;1048589;28;20306;-76
2022/06/15 02:25:31;;;;;;;7.85;5.35;;;;;;;8.15;98.18;101843.78;1051997;28;20389;-76
2022/06/15 02:26:04;;;;;;;8.00;5.45;;;;;;;8.21;98.64;101845.72;1048167;28;20742;-76
2022/06/15 02:26:37;;;;;;;7.03;5.10;;;;;;;8.28;98.42;101840.56;1050111;28;20388;-76
2022/06/15 02:27:11;;;;;;;6.20;5.60;;;;;;;8.21;98.34;101835.13;1051680;28;20298;-76
2022/06/15 02:27:51;;;;;;;7.35;5.50;;;;;;;8.17;98.81;101839.13;1048241;28;20384;-77
2022/06/15 02:28:27;;;;;;;6.55;5.80;;;;;;;8.30;98.83;101838.56;1047616;28;20360;-77
2022/06/15 02:29:04;;;;;;;5.53;4.60;;;;;;;8.19;98.76;101837.13;1044509;28;20299;-76
2022/06/15 02:29:46;;;;;;;6.35;5.75;;;;;;;8.15;98.64;101835.84;1043951;28;20770;-76
2022/06/15 02:30:23;;;;;;;9.45;5.70;;;;;;;8.22;98.87;101842.13;1047461;28;20311;-77
2022/06/15 02:31:01;;;;;;;8.43;6.57;;;;;;;8.47;98.68;101833.97;1041865;28;20353;-77
2022/06/15 02:31:35;;;;;;;9.05;6.70;;;;;;;8.31;98.68;101834.91;1051497;28;20328;-77
2022/06/15 02:32:09;;;;;;;6.18;5.57;;;;;;;8.22;98.20;101834.16;1044617;28;20299;-77
2022/06/15 02:32:42;;;;;;;7.95;5.45;;;;;;;8.23;99.09;101835.81;1050605;28;20302;-77
2022/06/15 02:33:31;;;;;;;12.43;4.95;;;;;;;8.29;99.01;101837.75;1048235;28;20365;-77
2022/06/15 02:34:05;;;;;;;6.72;5.25;;;;;;;8.50;99.05;101833.66;1047195;28;20882;-77
2022/06/15 02:34:38;;;;;;;10.90;5.35;;;;;;;8.53;98.93;101833.28;1050462;28;20294;-77
2022/06/15 02:35:11;;;;;;;5.50;5.03;;;;;;;8.55;98.30;101825.97;1053685;28;20305;-76
2022/06/15 02:35:43;;;;;;;5.90;5.30;;;;;;;8.32;98.14;101825.94;1058666;27;20423;-76
2022/06/15 02:36:19;;;;;;;10.25;5.10;;;;;;;8.58;97.95;101836.22;1060259;27;20366;-76
2022/06/15 02:36:50;;;;;;;11.88;5.53;;;;;;;8.63;97.81;101831.19;1052905;28;20306;-76
2022/06/15 02:37:25;;;;;;;8.55;5.15;;;;;;;8.73;97.76;101823.81;1048234;28;20337;-76
2022/06/15 02:37:57;;;;;;;6.57;5.38;;;;;;;8.71;97.44;101831.13;1049113;28;20295;-76
2022/06/15 02:38:31;;;;;;;5.80;5.22;;;;;;;8.69;97.15;101833.13;1055030;27;20364;-76
2022/06/15 02:39:05;;;;;;;6.20;5.45;;;;;;;8.66;96.57;101833.50;1057253;27;20347;-76
2022/06/15 02:39:37;;;;;;;8.07;4.57;;;;;;;8.67;95.98;101829.84;1052456;28;20282;-76
2022/06/15 02:40:14;;;;;;;6.25;4.97;;;;;;;8.79;95.98;101832.91;1052144;28;20389;-76
2022/06/15 02:40:46;;;;;;;5.53;5.00;;;;;;;8.78;95.18;101825.94;1053766;28;20301;-76
2022/06/15 02:41:20;;;;;;;7.00;4.85;;;;;;;8.80;95.25;101831.91;1048815;28;20433;-76
2022/06/15 02:41:59;;;;;;;4.70;4.30;;;;;;;8.94;94.81;101837.22;1039594;28;20307;-76
2022/06/15 02:42:35;;;;;;;4.20;3.90;;;;;;;8.90;95.19;101827.13;1049754;28;20314;-76
2022/06/15 02:43:12;;;;;;;5.68;4.28;;;;;;;8.79;94.56;101832.91;1050376;28;20337;-76
2022/06/15 02:43:51;;;;;;;4.45;4.15;;;;;;;8.82;94.02;101827.22;1047782;28;20548;-76
2022/06/15 02:44:24;;;;;;;4.93;4.53;;;;;;;8.76;94.29;101828.75;1048225;28;20684;-76
2022/06/15 02:45:01;;;;;;;5.45;4.53;;;;;;;8.82;94.16;101828.06;1045426;28;20299;-76
2022/06/15 02:45:38;;;;;;;5.95;4.50;;;;;;;8.71;94.18;101831.13;1048186;28;20428;-76
2022/06/15 02:46:13;;;;;;;6.63;5.43;;;;;;;8.57;94.01;101823.97;1049816;28;20378;-76
2022/06/15 02:46:47;;;;;;;6.05;5.03;;;;;;;8.64;94.60;101827.53;1050205;28;20695;-76
2022/06/15 02:47:20;;;;;;;6.07;4.85;;;;;;;8.77;94.87;101826.94;1049343;28;20306;-76
2022/06/15 02:47:52;;;;;;;6.90;4.47;;;;;;;8.72;94.94;101827.47;1052436;28;20657;-76
2022/06/15 02:48:24;;;;;;;8.35;4.90;;;;;;;8.69;94.53;101830.47;1049059;28;20349;-76
2022/06/15 02:48:57;;;;;;;7.20;4.90;;;;;;;8.58;94.39;101825.59;1048630;28;20326;-76
2022/06/15 02:49:29;;;;;;;5.53;4.95;;;;;;;8.32;94.28;101834.72;1050907;28;20368;-76
2022/06/15 02:50:01;;;;;;;10.23;4.93;;;;;;;8.56;94.68;101822.31;1047919;28;20372;-76
2022/06/15 02:50:41;;;;;;;6.50;5.25;;;;;;;8.54;95.43;101826.97;1045119;28;20295;-76
2022/06/15 02:51:28;;;;;;;10.20;5.40;;;;;;;8.59;95.58;101827.25;1044050;28;20295;-76
2022/06/15 02:52:05;;;;;;;5.72;5.22;;;;;;;8.90;95.53;101824.47;1043737;28;20323;-76
2022/06/15 02:52:42;;;;;;;8.50;6.15;;;;;;;9.04;95.14;101830.81;1048047;28;20047;-77
2022/06/15 02:53:20;;;;;;;8.02;6.57;;;;;;;8.98;95.22;101830.53;1052867;28;20298;-76
2022/06/15 02:53:54;;;;;;;6.50;5.85;;;;;;;9.06;95.23;101826.16;1052044;28;20360;-77
2022/06/15 02:54:29;;;;;;;6.00;5.40;;;;;;;8.92;94.94;101828.59;1052131;28;20323;-76
2022/06/15 02:55:11;;;;;;;8.93;5.65;;;;;;;8.81;95.80;101821.09;1050659;28;20316;-76
2022/06/15 02:55:43;;;;;;;17.13;7.20;;;;;;;8.76;95.77;101823.44;1047734;28;20723;-76
2022/06/15 02:56:15;;;;;;;9.85;6.40;;;;;;;8.93;95.67;101824.94;1046407;28;20295;-76
2022/06/15 02:56:47;;;;;;;9.60;6.20;;;;;;;8.92;95.54;101827.78;1050469;28;20306;-76
2022/06/15 02:57:19;;;;;;;9.52;6.43;;;;;;;8.76;95.78;101823.44;1049104;28;20799;-76
2022/06/15 02:58:02;;;;;;;10.77;6.70;;;;;;;8.69;95.74;101825.16;1051199;28;20383;-76
2022/06/15 02:58:43;;;;;;;7.40;6.30;;;;;;;8.62;96.10;101826.91;1044209;28;20311;-76
2022/06/15 02:59:17;;;;;;;8.18;6.40;;;;;;;8.48;96.76;101820.53;1046957;28;20303;-76
2022/06/15 02:59:50;;;;;;;9.98;7.00;;;;;;;8.55;96.65;101820.66;1051949;28;20391;-76
2022/06/15 03:00:25;;;;;;;11.60;6.80;;;;;;;8.59;96.59;101824.59;1052152;28;20354;-76
2022/06/15 03:00:57;;;;;;;8.30;6.35;;;;;;;8.72;97.11;101822.16;1049750;28;20287;-76
2022/06/15 03:01:34;;;;;;;9.60;6.75;;;;;;;8.64;96.66;101819.56;1046591;28;20386;-76
2022/06/15 03:02:06;;;;;;;7.82;6.32;;;;;;;8.74;96.46;101825.44;1052366;28;20386;-76
2022/06/15 03:02:43;;;;;;;9.35;7.00;;;;;;;8.55;96.91;101828.63;1051887;28;20363;-76
2022/06/15 03:03:14;;;;;;;6.82;5.50;;;;;;;8.74;96.30;101821.97;1053747;28;20366;-77
2022/06/15 03:03:48;;;;;;;6.70;6.07;;;;;;;8.54;96.71;101825.16;1056266;28;20774;-76
2022/06/15 03:04:25;;;;;;;8.85;5.78;;;;;;;8.59;96.67;101825.44;1057543;27;20309;-76
2022/06/15 03:04:57;;;;;;;8.43;5.57;;;;;;;8.43;96.61;101822.88;1053290;28;20306;-76
2022/06/15 03:05:29;;;;;;;8.68;6.55;;;;;;;8.56;96.90;101817.00;1051528;28;20306;-76
2022/06/15 03:06:01;;;;;;;11.00;6.93;;;;;;;8.42;96.61;101823.06;1051992;28;20302;-76
2022/06/15 03:06:32;;;;;;;6.10;5.55;;;;;;;8.60;97.42;101819.13;1051767;28;20297;-76
2022/06/15 03:07:13;;;;;;;7.15;6.40;;;;;;;8.56;97.44;101823.13;1052314;28;20375;-77